sensor_id;sensor_type;location;lat;lon;timestamp;P1;durP1;ratioP1;P2;durP2;ratioP2
26588;SDS011;14235;48.532;8.722;2023-02-13T00:01:38;7.73;;;6.60;;
26588;SDS011;14235;48.532;8.722;2023-02-13T00:04:04;9.13;;;7.00;;
26588;SDS011;14235;48.532;8.722;2023-02-13T00:06:30;8.70;;;6.80;;
26588;SDS011;14235;48.532;8.722;2023-02-13T00:08:55;10.60;;;6.93;;
26588;SDS011;14235;48.532;8.722;2023-02-13T00:11:21;9.00;;;7.53;;
26588;SDS011;14235;48.532;8.722;2023-02-13T00:13:47;9.93;;;7.53;;
26588;SDS011;14235;48.532;8.722;2023-02-13T00:16:12;9.63;;;7.10;;
26588;SDS011;14235;48.532;8.722;2023-02-13T00:18:38;7.70;;;6.90;;
26588;SDS011;14235;48.532;8.722;2023-02-13T00:21:04;9.17;;;7.17;;
26588;SDS011;14235;48.532;8.722;2023-02-13T00:23:32;8.50;;;7.03;;
26588;SDS011;14235;48.532;8.722;2023-02-13T00:25:59;10.33;;;7.73;;
26588;SDS011;14235;48.532;8.722;2023-02-13T00:28:28;8.40;;;7.00;;
26588;SDS011;14235;48.532;8.722;2023-02-13T00:31:00;10.87;;;7.53;;
26588;SDS011;14235;48.532;8.722;2023-02-13T00:33:27;9.93;;;7.40;;
26588;SDS011;14235;48.532;8.722;2023-02-13T00:36:00;9.67;;;7.23;;
26588;SDS011;14235;48.532;8.722;2023-02-13T00:38:28;8.10;;;6.63;;
26588;SDS011;14235;48.532;8.722;2023-02-13T00:40:54;9.13;;;7.47;;
26588;SDS011;14235;48.532;8.722;2023-02-13T00:43:20;9.97;;;7.40;;
26588;SDS011;14235;48.532;8.722;2023-02-13T00:45:45;8.23;;;7.00;;
26588;SDS011;14235;48.532;8.722;2023-02-13T00:48:11;9.10;;;6.77;;
26588;SDS011;14235;48.532;8.722;2023-02-13T00:50:36;8.43;;;6.60;;
26588;SDS011;14235;48.532;8.722;2023-02-13T00:53:02;8.53;;;6.83;;
26588;SDS011;14235;48.532;8.722;2023-02-13T00:55:28;9.10;;;7.27;;
26588;SDS011;14235;48.532;8.722;2023-02-13T00:57:54;9.87;;;7.63;;
26588;SDS011;14235;48.532;8.722;2023-02-13T01:00:20;8.50;;;6.73;;
26588;SDS011;14235;48.532;8.722;2023-02-13T01:02:45;9.00;;;7.10;;
26588;SDS011;14235;48.532;8.722;2023-02-13T01:05:12;11.97;;;7.97;;
26588;SDS011;14235;48.532;8.722;2023-02-13T01:07:38;10.23;;;7.57;;
26588;SDS011;14235;48.532;8.722;2023-02-13T01:10:04;11.17;;;7.27;;
26588;SDS011;14235;48.532;8.722;2023-02-13T01:12:30;8.27;;;6.97;;
26588;SDS011;14235;48.532;8.722;2023-02-13T01:14:56;9.00;;;7.00;;
26588;SDS011;14235;48.532;8.722;2023-02-13T01:17:22;9.23;;;6.93;;
26588;SDS011;14235;48.532;8.722;2023-02-13T01:19:47;9.37;;;7.23;;
26588;SDS011;14235;48.532;8.722;2023-02-13T01:22:13;7.87;;;6.80;;
26588;SDS011;14235;48.532;8.722;2023-02-13T01:24:38;11.00;;;7.70;;
26588;SDS011;14235;48.532;8.722;2023-02-13T01:27:04;10.17;;;7.70;;
26588;SDS011;14235;48.532;8.722;2023-02-13T01:29:30;9.20;;;7.43;;
26588;SDS011;14235;48.532;8.722;2023-02-13T01:31:56;11.27;;;7.80;;
26588;SDS011;14235;48.532;8.722;2023-02-13T01:34:21;9.30;;;7.10;;
26588;SDS011;14235;48.532;8.722;2023-02-13T01:36:47;8.23;;;7.00;;
26588;SDS011;14235;48.532;8.722;2023-02-13T01:39:13;9.43;;;7.07;;
26588;SDS011;14235;48.532;8.722;2023-02-13T01:41:39;8.33;;;6.90;;
26588;SDS011;14235;48.532;8.722;2023-02-13T01:47:09;7.83;;;6.67;;
26588;SDS011;14235;48.532;8.722;2023-02-13T01:49:37;8.07;;;6.53;;
26588;SDS011;14235;48.532;8.722;2023-02-13T01:52:05;8.70;;;7.20;;
26588;SDS011;14235;48.532;8.722;2023-02-13T01:54:33;8.47;;;7.03;;
26588;SDS011;14235;48.532;8.722;2023-02-13T01:57:04;11.53;;;7.50;;
26588;SDS011;14235;48.532;8.722;2023-02-13T01:59:37;9.93;;;7.37;;
26588;SDS011;14235;48.532;8.722;2023-02-13T02:02:08;10.03;;;7.77;;
26588;SDS011;14235;48.532;8.722;2023-02-13T02:04:34;10.47;;;7.70;;
26588;SDS011;14235;48.532;8.722;2023-02-13T02:07:06;15.50;;;7.87;;
26588;SDS011;14235;48.532;8.722;2023-02-13T02:09:36;12.20;;;7.77;;
26588;SDS011;14235;48.532;8.722;2023-02-13T02:12:07;22.30;;;8.50;;
26588;SDS011;14235;48.532;8.722;2023-02-13T02:14:37;11.73;;;8.80;;
26588;SDS011;14235;48.532;8.722;2023-02-13T02:17:05;13.00;;;8.30;;
26588;SDS011;14235;48.532;8.722;2023-02-13T02:38:41;10.77;;;7.43;;
26588;SDS011;14235;48.532;8.722;2023-02-13T02:41:27;13.13;;;8.00;;
26588;SDS011;14235;48.532;8.722;2023-02-13T02:46:44;9.77;;;7.57;;
26588;SDS011;14235;48.532;8.722;2023-02-13T02:49:54;9.30;;;7.40;;
26588;SDS011;14235;48.532;8.722;2023-02-13T02:55:38;9.30;;;6.80;;
26588;SDS011;14235;48.532;8.722;2023-02-13T03:01:12;8.63;;;6.90;;
26588;SDS011;14235;48.532;8.722;2023-02-13T03:03:59;14.63;;;7.10;;
26588;SDS011;14235;48.532;8.722;2023-02-13T03:06:52;9.03;;;6.90;;
26588;SDS011;14235;48.532;8.722;2023-02-13T03:09:22;9.67;;;7.63;;
26588;SDS011;14235;48.532;8.722;2023-02-13T03:12:11;9.97;;;6.80;;
26588;SDS011;14235;48.532;8.722;2023-02-13T03:15:00;9.23;;;7.17;;
26588;SDS011;14235;48.532;8.722;2023-02-13T03:17:25;12.10;;;7.10;;
26588;SDS011;14235;48.532;8.722;2023-02-13T03:25:29;11.37;;;7.70;;
26588;SDS011;14235;48.532;8.722;2023-02-13T03:44:19;13.10;;;7.50;;
26588;SDS011;14235;48.532;8.722;2023-02-13T03:47:00;9.60;;;7.30;;
26588;SDS011;14235;48.532;8.722;2023-02-13T03:49:47;10.40;;;6.70;;
26588;SDS011;14235;48.532;8.722;2023-02-13T03:52:47;8.83;;;6.83;;
26588;SDS011;14235;48.532;8.722;2023-02-13T03:55:16;9.70;;;7.30;;
26588;SDS011;14235;48.532;8.722;2023-02-13T03:58:06;9.13;;;6.97;;
26588;SDS011;14235;48.532;8.722;2023-02-13T04:00:54;7.70;;;6.40;;
26588;SDS011;14235;48.532;8.722;2023-02-13T04:03:27;7.87;;;7.00;;
26588;SDS011;14235;48.532;8.722;2023-02-13T04:06:03;10.97;;;7.17;;
26588;SDS011;14235;48.532;8.722;2023-02-13T04:08:31;8.47;;;7.20;;
26588;SDS011;14235;48.532;8.722;2023-02-13T04:13:35;10.47;;;7.57;;
26588;SDS011;14235;48.532;8.722;2023-02-13T04:16:07;10.40;;;7.23;;
26588;SDS011;14235;48.532;8.722;2023-02-13T04:18:35;9.53;;;6.80;;
26588;SDS011;14235;48.532;8.722;2023-02-13T04:21:04;12.03;;;7.30;;
26588;SDS011;14235;48.532;8.722;2023-02-13T04:23:31;14.97;;;7.60;;
26588;SDS011;14235;48.532;8.722;2023-02-13T04:25:59;31.17;;;7.60;;
26588;SDS011;14235;48.532;8.722;2023-02-13T04:28:25;10.43;;;7.07;;
26588;SDS011;14235;48.532;8.722;2023-02-13T04:30:51;12.03;;;7.10;;
26588;SDS011;14235;48.532;8.722;2023-02-13T04:33:18;8.47;;;7.00;;
26588;SDS011;14235;48.532;8.722;2023-02-13T04:35:48;9.50;;;6.87;;
26588;SDS011;14235;48.532;8.722;2023-02-13T04:38:14;8.03;;;6.70;;
26588;SDS011;14235;48.532;8.722;2023-02-13T04:40:43;10.00;;;7.13;;
26588;SDS011;14235;48.532;8.722;2023-02-13T04:43:08;9.23;;;6.53;;
26588;SDS011;14235;48.532;8.722;2023-02-13T04:45:35;30.47;;;7.37;;
26588;SDS011;14235;48.532;8.722;2023-02-13T04:48:05;9.47;;;6.33;;
26588;SDS011;14235;48.532;8.722;2023-02-13T04:50:31;8.83;;;6.57;;
26588;SDS011;14235;48.532;8.722;2023-02-13T04:52:57;8.90;;;6.27;;
26588;SDS011;14235;48.532;8.722;2023-02-13T04:55:24;9.83;;;7.07;;
26588;SDS011;14235;48.532;8.722;2023-02-13T04:57:50;15.47;;;7.10;;
26588;SDS011;14235;48.532;8.722;2023-02-13T05:00:18;7.37;;;6.40;;
26588;SDS011;14235;48.532;8.722;2023-02-13T05:02:44;8.20;;;7.20;;
26588;SDS011;14235;48.532;8.722;2023-02-13T05:05:10;9.00;;;6.33;;
26588;SDS011;14235;48.532;8.722;2023-02-13T05:07:36;9.43;;;7.40;;
26588;SDS011;14235;48.532;8.722;2023-02-13T05:10:02;7.70;;;6.23;;
26588;SDS011;14235;48.532;8.722;2023-02-13T05:12:30;10.07;;;6.77;;
26588;SDS011;14235;48.532;8.722;2023-02-13T05:14:55;8.63;;;6.90;;
26588;SDS011;14235;48.532;8.722;2023-02-13T05:17:21;9.93;;;6.50;;
26588;SDS011;14235;48.532;8.722;2023-02-13T05:19:47;17.50;;;7.00;;
26588;SDS011;14235;48.532;8.722;2023-02-13T05:22:12;11.07;;;6.87;;
26588;SDS011;14235;48.532;8.722;2023-02-13T05:24:56;8.57;;;6.93;;
26588;SDS011;14235;48.532;8.722;2023-02-13T05:27:22;6.97;;;6.20;;
26588;SDS011;14235;48.532;8.722;2023-02-13T05:29:47;8.60;;;6.73;;
26588;SDS011;14235;48.532;8.722;2023-02-13T05:32:13;7.37;;;6.13;;
26588;SDS011;14235;48.532;8.722;2023-02-13T05:34:38;7.77;;;6.10;;
26588;SDS011;14235;48.532;8.722;2023-02-13T05:37:04;7.33;;;6.13;;
26588;SDS011;14235;48.532;8.722;2023-02-13T05:39:29;8.20;;;6.50;;
26588;SDS011;14235;48.532;8.722;2023-02-13T05:41:55;6.97;;;6.23;;
26588;SDS011;14235;48.532;8.722;2023-02-13T05:44:21;6.00;;;5.40;;
26588;SDS011;14235;48.532;8.722;2023-02-13T05:46:46;6.57;;;5.83;;
26588;SDS011;14235;48.532;8.722;2023-02-13T05:49:13;6.57;;;5.60;;
26588;SDS011;14235;48.532;8.722;2023-02-13T05:51:39;6.53;;;5.83;;
26588;SDS011;14235;48.532;8.722;2023-02-13T05:54:06;7.07;;;5.73;;
26588;SDS011;14235;48.532;8.722;2023-02-13T05:56:31;6.80;;;5.77;;
26588;SDS011;14235;48.532;8.722;2023-02-13T05:58:57;6.43;;;5.50;;
26588;SDS011;14235;48.532;8.722;2023-02-13T06:01:23;8.63;;;7.10;;
26588;SDS011;14235;48.532;8.722;2023-02-13T06:03:49;8.50;;;7.13;;
26588;SDS011;14235;48.532;8.722;2023-02-13T06:06:15;11.57;;;8.83;;
26588;SDS011;14235;48.532;8.722;2023-02-13T06:08:41;49.40;;;18.80;;
26588;SDS011;14235;48.532;8.722;2023-02-13T06:11:08;14.97;;;7.90;;
26588;SDS011;14235;48.532;8.722;2023-02-13T06:13:35;9.60;;;6.57;;
26588;SDS011;14235;48.532;8.722;2023-02-13T06:16:04;10.23;;;7.60;;
26588;SDS011;14235;48.532;8.722;2023-02-13T06:18:36;9.27;;;7.53;;
26588;SDS011;14235;48.532;8.722;2023-02-13T06:21:03;10.53;;;7.93;;
26588;SDS011;14235;48.532;8.722;2023-02-13T06:23:29;9.60;;;8.07;;
26588;SDS011;14235;48.532;8.722;2023-02-13T06:25:55;9.77;;;7.97;;
26588;SDS011;14235;48.532;8.722;2023-02-13T06:28:21;10.77;;;7.73;;
26588;SDS011;14235;48.532;8.722;2023-02-13T06:30:47;8.03;;;6.97;;
26588;SDS011;14235;48.532;8.722;2023-02-13T06:33:13;8.07;;;6.33;;
26588;SDS011;14235;48.532;8.722;2023-02-13T06:35:39;14.73;;;10.40;;
26588;SDS011;14235;48.532;8.722;2023-02-13T06:38:04;23.13;;;15.07;;
26588;SDS011;14235;48.532;8.722;2023-02-13T06:40:30;16.90;;;11.37;;
26588;SDS011;14235;48.532;8.722;2023-02-13T06:42:55;11.93;;;9.00;;
26588;SDS011;14235;48.532;8.722;2023-02-13T06:45:21;11.47;;;8.53;;
26588;SDS011;14235;48.532;8.722;2023-02-13T06:47:47;17.73;;;9.80;;
26588;SDS011;14235;48.532;8.722;2023-02-13T06:50:13;15.13;;;9.63;;
26588;SDS011;14235;48.532;8.722;2023-02-13T06:52:44;16.00;;;10.63;;
26588;SDS011;14235;48.532;8.722;2023-02-13T06:55:14;15.10;;;10.17;;
26588;SDS011;14235;48.532;8.722;2023-02-13T06:57:40;13.47;;;9.53;;
26588;SDS011;14235;48.532;8.722;2023-02-13T07:00:07;13.00;;;8.70;;
26588;SDS011;14235;48.532;8.722;2023-02-13T07:02:37;8.83;;;6.97;;
26588;SDS011;14235;48.532;8.722;2023-02-13T07:05:03;9.00;;;7.20;;
26588;SDS011;14235;48.532;8.722;2023-02-13T07:07:31;8.83;;;7.40;;
26588;SDS011;14235;48.532;8.722;2023-02-13T07:10:00;8.60;;;6.80;;
26588;SDS011;14235;48.532;8.722;2023-02-13T07:12:27;11.73;;;8.50;;
26588;SDS011;14235;48.532;8.722;2023-02-13T07:14:52;10.77;;;8.43;;
26588;SDS011;14235;48.532;8.722;2023-02-13T07:17:18;10.10;;;7.90;;
26588;SDS011;14235;48.532;8.722;2023-02-13T07:19:43;10.20;;;7.10;;
26588;SDS011;14235;48.532;8.722;2023-02-13T07:22:09;10.33;;;7.70;;
26588;SDS011;14235;48.532;8.722;2023-02-13T07:24:35;12.20;;;8.37;;
26588;SDS011;14235;48.532;8.722;2023-02-13T07:27:02;11.40;;;9.00;;
26588;SDS011;14235;48.532;8.722;2023-02-13T07:29:28;13.20;;;9.37;;
26588;SDS011;14235;48.532;8.722;2023-02-13T07:31:54;13.33;;;9.87;;
26588;SDS011;14235;48.532;8.722;2023-02-13T07:34:19;12.77;;;9.70;;
26588;SDS011;14235;48.532;8.722;2023-02-13T07:36:45;12.13;;;9.43;;
26588;SDS011;14235;48.532;8.722;2023-02-13T07:39:11;11.93;;;8.60;;
26588;SDS011;14235;48.532;8.722;2023-02-13T07:41:36;12.33;;;9.30;;
26588;SDS011;14235;48.532;8.722;2023-02-13T07:44:02;17.13;;;11.27;;
26588;SDS011;14235;48.532;8.722;2023-02-13T07:46:27;12.73;;;9.97;;
26588;SDS011;14235;48.532;8.722;2023-02-13T07:48:53;13.50;;;10.67;;
26588;SDS011;14235;48.532;8.722;2023-02-13T07:51:18;14.13;;;10.53;;
26588;SDS011;14235;48.532;8.722;2023-02-13T07:53:44;12.20;;;9.90;;
26588;SDS011;14235;48.532;8.722;2023-02-13T07:56:11;13.83;;;9.70;;
26588;SDS011;14235;48.532;8.722;2023-02-13T07:58:37;11.10;;;8.90;;
26588;SDS011;14235;48.532;8.722;2023-02-13T08:01:05;12.17;;;8.47;;
26588;SDS011;14235;48.532;8.722;2023-02-13T08:03:35;12.33;;;8.90;;
26588;SDS011;14235;48.532;8.722;2023-02-13T08:06:00;11.20;;;9.27;;
26588;SDS011;14235;48.532;8.722;2023-02-13T08:08:27;11.87;;;8.83;;
26588;SDS011;14235;48.532;8.722;2023-02-13T08:10:52;12.97;;;8.57;;
26588;SDS011;14235;48.532;8.722;2023-02-13T08:13:37;11.77;;;8.80;;
26588;SDS011;14235;48.532;8.722;2023-02-13T08:16:03;11.77;;;8.37;;
26588;SDS011;14235;48.532;8.722;2023-02-13T08:18:28;12.90;;;9.17;;
26588;SDS011;14235;48.532;8.722;2023-02-13T08:20:54;11.33;;;8.40;;
26588;SDS011;14235;48.532;8.722;2023-02-13T08:23:19;11.40;;;8.63;;
26588;SDS011;14235;48.532;8.722;2023-02-13T08:25:45;12.80;;;9.23;;
26588;SDS011;14235;48.532;8.722;2023-02-13T08:28:13;11.87;;;8.97;;
26588;SDS011;14235;48.532;8.722;2023-02-13T08:30:39;11.33;;;8.63;;
26588;SDS011;14235;48.532;8.722;2023-02-13T08:33:04;11.73;;;9.03;;
26588;SDS011;14235;48.532;8.722;2023-02-13T08:35:30;12.70;;;9.17;;
26588;SDS011;14235;48.532;8.722;2023-02-13T08:37:56;14.77;;;9.83;;
26588;SDS011;14235;48.532;8.722;2023-02-13T08:40:25;13.17;;;9.53;;
26588;SDS011;14235;48.532;8.722;2023-02-13T08:42:51;13.47;;;9.37;;
26588;SDS011;14235;48.532;8.722;2023-02-13T08:45:16;11.87;;;8.17;;
26588;SDS011;14235;48.532;8.722;2023-02-13T08:47:42;10.73;;;8.70;;
26588;SDS011;14235;48.532;8.722;2023-02-13T08:50:07;10.77;;;7.93;;
26588;SDS011;14235;48.532;8.722;2023-02-13T08:52:33;10.40;;;8.17;;
26588;SDS011;14235;48.532;8.722;2023-02-13T08:54:59;12.00;;;8.40;;
26588;SDS011;14235;48.532;8.722;2023-02-13T08:57:27;11.87;;;9.33;;
26588;SDS011;14235;48.532;8.722;2023-02-13T08:59:52;14.10;;;9.17;;
26588;SDS011;14235;48.532;8.722;2023-02-13T09:02:18;11.50;;;9.30;;
26588;SDS011;14235;48.532;8.722;2023-02-13T09:04:43;19.73;;;9.50;;
26588;SDS011;14235;48.532;8.722;2023-02-13T09:07:09;13.43;;;9.60;;
26588;SDS011;14235;48.532;8.722;2023-02-13T09:09:34;19.40;;;10.13;;
26588;SDS011;14235;48.532;8.722;2023-02-13T09:12:00;12.93;;;9.47;;
26588;SDS011;14235;48.532;8.722;2023-02-13T09:14:25;12.50;;;9.43;;
26588;SDS011;14235;48.532;8.722;2023-02-13T09:16:51;12.70;;;9.47;;
26588;SDS011;14235;48.532;8.722;2023-02-13T09:19:17;13.10;;;9.73;;
26588;SDS011;14235;48.532;8.722;2023-02-13T09:21:42;13.50;;;9.47;;
26588;SDS011;14235;48.532;8.722;2023-02-13T09:24:11;12.43;;;9.53;;
26588;SDS011;14235;48.532;8.722;2023-02-13T09:26:36;12.60;;;9.57;;
26588;SDS011;14235;48.532;8.722;2023-02-13T09:29:02;11.43;;;9.53;;
26588;SDS011;14235;48.532;8.722;2023-02-13T09:31:27;10.97;;;9.50;;
26588;SDS011;14235;48.532;8.722;2023-02-13T09:33:53;12.10;;;9.43;;
26588;SDS011;14235;48.532;8.722;2023-02-13T09:36:20;11.20;;;9.30;;
26588;SDS011;14235;48.532;8.722;2023-02-13T09:38:51;11.43;;;8.97;;
26588;SDS011;14235;48.532;8.722;2023-02-13T09:41:28;10.90;;;8.90;;
26588;SDS011;14235;48.532;8.722;2023-02-13T09:46:35;11.53;;;9.23;;
26588;SDS011;14235;48.532;8.722;2023-02-13T09:49:12;11.57;;;9.20;;
26588;SDS011;14235;48.532;8.722;2023-02-13T09:51:43;11.77;;;9.50;;
26588;SDS011;14235;48.532;8.722;2023-02-13T09:54:12;11.60;;;9.70;;
26588;SDS011;14235;48.532;8.722;2023-02-13T10:01:49;12.47;;;9.40;;
26588;SDS011;14235;48.532;8.722;2023-02-13T10:04:24;13.10;;;10.20;;
26588;SDS011;14235;48.532;8.722;2023-02-13T10:07:16;12.10;;;9.57;;
26588;SDS011;14235;48.532;8.722;2023-02-13T10:13:05;13.50;;;10.00;;
26588;SDS011;14235;48.532;8.722;2023-02-13T10:15:52;12.57;;;9.80;;
26588;SDS011;14235;48.532;8.722;2023-02-13T10:18:33;12.27;;;9.73;;
26588;SDS011;14235;48.532;8.722;2023-02-13T12:41:14;18.98;;;14.07;;
26588;SDS011;14235;48.532;8.722;2023-02-13T12:43:57;17.20;;;13.57;;
26588;SDS011;14235;48.532;8.722;2023-02-13T12:46:48;17.38;;;13.48;;
26588;SDS011;14235;48.532;8.722;2023-02-13T12:57:28;18.42;;;13.93;;
26588;SDS011;14235;48.532;8.722;2023-02-13T13:11:33;18.95;;;13.93;;
26588;SDS011;14235;48.532;8.722;2023-02-13T13:17:10;16.77;;;13.45;;
26588;SDS011;14235;48.532;8.722;2023-02-13T13:25:28;18.10;;;13.95;;
26588;SDS011;14235;48.532;8.722;2023-02-13T13:28:13;15.60;;;13.10;;
26588;SDS011;14235;48.532;8.722;2023-02-13T13:30:40;17.55;;;13.70;;
26588;SDS011;14235;48.532;8.722;2023-02-13T13:33:12;19.80;;;14.90;;
26588;SDS011;14235;48.532;8.722;2023-02-13T13:35:54;16.77;;;13.75;;
26588;SDS011;14235;48.532;8.722;2023-02-13T13:41:26;17.33;;;14.45;;
26588;SDS011;14235;48.532;8.722;2023-02-13T13:44:19;17.60;;;14.18;;
26588;SDS011;14235;48.532;8.722;2023-02-13T13:49:59;18.73;;;14.05;;
26588;SDS011;14235;48.532;8.722;2023-02-13T13:52:34;16.30;;;12.85;;
26588;SDS011;14235;48.532;8.722;2023-02-13T13:55:03;15.88;;;13.25;;
26588;SDS011;14235;48.532;8.722;2023-02-13T13:59:59;16.92;;;13.40;;
26588;SDS011;14235;48.532;8.722;2023-02-13T14:02:26;16.95;;;13.55;;
26588;SDS011;14235;48.532;8.722;2023-02-13T14:07:47;20.58;;;15.13;;
26588;SDS011;14235;48.532;8.722;2023-02-13T14:12:59;15.15;;;13.10;;
26588;SDS011;14235;48.532;8.722;2023-02-13T14:18:05;15.35;;;12.85;;
26588;SDS011;14235;48.532;8.722;2023-02-13T14:25:42;17.80;;;13.75;;
26588;SDS011;14235;48.532;8.722;2023-02-13T14:28:24;15.90;;;12.93;;
26588;SDS011;14235;48.532;8.722;2023-02-13T14:30:52;14.98;;;12.93;;
26588;SDS011;14235;48.532;8.722;2023-02-13T14:33:30;15.10;;;12.70;;
26588;SDS011;14235;48.532;8.722;2023-02-13T14:38:28;13.10;;;11.65;;
26588;SDS011;14235;48.532;8.722;2023-02-13T14:40:55;13.27;;;11.88;;
26588;SDS011;14235;48.532;8.722;2023-02-13T14:48:33;12.75;;;11.45;;
26588;SDS011;14235;48.532;8.722;2023-02-13T14:51:00;12.88;;;11.40;;
26588;SDS011;14235;48.532;8.722;2023-02-13T14:53:29;12.07;;;10.75;;
26588;SDS011;14235;48.532;8.722;2023-02-13T14:55:58;11.55;;;10.00;;
26588;SDS011;14235;48.532;8.722;2023-02-13T14:58:34;12.75;;;11.35;;
26588;SDS011;14235;48.532;8.722;2023-02-13T15:01:02;12.23;;;10.80;;
26588;SDS011;14235;48.532;8.722;2023-02-13T15:03:33;11.30;;;10.05;;
26588;SDS011;14235;48.532;8.722;2023-02-13T15:06:03;11.93;;;10.10;;
26588;SDS011;14235;48.532;8.722;2023-02-13T15:08:33;11.23;;;10.02;;
26588;SDS011;14235;48.532;8.722;2023-02-13T15:11:00;11.70;;;10.20;;
26588;SDS011;14235;48.532;8.722;2023-02-13T15:13:34;9.98;;;8.98;;
26588;SDS011;14235;48.532;8.722;2023-02-13T15:16:05;11.45;;;9.88;;
26588;SDS011;14235;48.532;8.722;2023-02-13T15:18:37;10.48;;;9.38;;
26588;SDS011;14235;48.532;8.722;2023-02-13T15:21:08;11.90;;;10.05;;
26588;SDS011;14235;48.532;8.722;2023-02-13T15:23:35;10.70;;;9.57;;
26588;SDS011;14235;48.532;8.722;2023-02-13T15:26:02;12.10;;;9.98;;
26588;SDS011;14235;48.532;8.722;2023-02-13T15:28:30;11.13;;;9.73;;
26588;SDS011;14235;48.532;8.722;2023-02-13T15:31:01;11.95;;;10.50;;
26588;SDS011;14235;48.532;8.722;2023-02-13T15:33:28;11.60;;;10.15;;
26588;SDS011;14235;48.532;8.722;2023-02-13T15:36:02;11.77;;;9.80;;
26588;SDS011;14235;48.532;8.722;2023-02-13T15:38:31;11.57;;;9.75;;
26588;SDS011;14235;48.532;8.722;2023-02-13T15:43:47;11.57;;;9.77;;
26588;SDS011;14235;48.532;8.722;2023-02-13T15:48:47;10.25;;;8.90;;
26588;SDS011;14235;48.532;8.722;2023-02-13T15:51:19;11.02;;;9.45;;
26588;SDS011;14235;48.532;8.722;2023-02-13T15:53:50;10.60;;;8.68;;
26588;SDS011;14235;48.532;8.722;2023-02-13T15:56:20;12.10;;;9.27;;
26588;SDS011;14235;48.532;8.722;2023-02-13T15:58:46;12.85;;;9.60;;
26588;SDS011;14235;48.532;8.722;2023-02-13T16:01:12;11.23;;;9.25;;
26588;SDS011;14235;48.532;8.722;2023-02-13T16:03:39;11.13;;;8.95;;
26588;SDS011;14235;48.532;8.722;2023-02-13T16:06:06;12.40;;;9.45;;
26588;SDS011;14235;48.532;8.722;2023-02-13T16:08:37;11.07;;;9.63;;
26588;SDS011;14235;48.532;8.722;2023-02-13T16:11:18;11.63;;;9.55;;
26588;SDS011;14235;48.532;8.722;2023-02-13T16:16:19;10.50;;;9.40;;
26588;SDS011;14235;48.532;8.722;2023-02-13T16:18:46;11.27;;;9.93;;
26588;SDS011;14235;48.532;8.722;2023-02-13T16:21:12;16.65;;;13.73;;
26588;SDS011;14235;48.532;8.722;2023-02-13T16:23:39;13.57;;;11.38;;
26588;SDS011;14235;48.532;8.722;2023-02-13T16:26:10;12.35;;;10.30;;
26588;SDS011;14235;48.532;8.722;2023-02-13T16:28:38;12.95;;;11.30;;
26588;SDS011;14235;48.532;8.722;2023-02-13T16:31:03;15.48;;;12.73;;
26588;SDS011;14235;48.532;8.722;2023-02-13T16:33:30;16.38;;;13.68;;
26588;SDS011;14235;48.532;8.722;2023-02-13T16:35:58;16.33;;;13.00;;
26588;SDS011;14235;48.532;8.722;2023-02-13T16:38:41;16.45;;;12.30;;
26588;SDS011;14235;48.532;8.722;2023-02-13T16:43:49;15.18;;;12.02;;
26588;SDS011;14235;48.532;8.722;2023-02-13T16:46:32;12.77;;;11.20;;
26588;SDS011;14235;48.532;8.722;2023-02-13T16:49:04;12.27;;;10.15;;
26588;SDS011;14235;48.532;8.722;2023-02-13T16:56:47;15.07;;;12.10;;
26588;SDS011;14235;48.532;8.722;2023-02-13T17:01:44;13.55;;;11.77;;
26588;SDS011;14235;48.532;8.722;2023-02-13T17:04:23;15.55;;;12.15;;
26588;SDS011;14235;48.532;8.722;2023-02-13T17:06:55;16.23;;;12.18;;
26588;SDS011;14235;48.532;8.722;2023-02-13T17:09:21;16.27;;;13.00;;
26588;SDS011;14235;48.532;8.722;2023-02-13T17:11:51;15.20;;;11.43;;
26588;SDS011;14235;48.532;8.722;2023-02-13T17:14:17;14.70;;;11.60;;
26588;SDS011;14235;48.532;8.722;2023-02-13T17:16:44;21.70;;;15.90;;
26588;SDS011;14235;48.532;8.722;2023-02-13T17:19:13;18.08;;;14.77;;
26588;SDS011;14235;48.532;8.722;2023-02-13T17:21:38;14.83;;;13.23;;
26588;SDS011;14235;48.532;8.722;2023-02-13T17:24:04;14.73;;;12.98;;
26588;SDS011;14235;48.532;8.722;2023-02-13T17:26:31;18.00;;;15.70;;
26588;SDS011;14235;48.532;8.722;2023-02-13T17:28:56;15.75;;;13.88;;
26588;SDS011;14235;48.532;8.722;2023-02-13T17:31:22;16.47;;;13.50;;
26588;SDS011;14235;48.532;8.722;2023-02-13T17:33:48;13.93;;;11.27;;
26588;SDS011;14235;48.532;8.722;2023-02-13T17:36:13;14.27;;;12.00;;
26588;SDS011;14235;48.532;8.722;2023-02-13T17:38:39;14.13;;;11.27;;
26588;SDS011;14235;48.532;8.722;2023-02-13T17:41:05;13.20;;;11.30;;
26588;SDS011;14235;48.532;8.722;2023-02-13T17:43:38;16.30;;;13.43;;
26588;SDS011;14235;48.532;8.722;2023-02-13T17:46:04;17.87;;;12.63;;
26588;SDS011;14235;48.532;8.722;2023-02-13T17:48:29;15.17;;;11.80;;
26588;SDS011;14235;48.532;8.722;2023-02-13T17:50:55;13.83;;;12.03;;
26588;SDS011;14235;48.532;8.722;2023-02-13T17:53:25;16.37;;;12.30;;
26588;SDS011;14235;48.532;8.722;2023-02-13T17:55:54;15.83;;;11.80;;
26588;SDS011;14235;48.532;8.722;2023-02-13T17:58:22;15.27;;;11.80;;
26588;SDS011;14235;48.532;8.722;2023-02-13T18:00:48;15.20;;;12.50;;
26588;SDS011;14235;48.532;8.722;2023-02-13T18:03:14;15.47;;;13.30;;
26588;SDS011;14235;48.532;8.722;2023-02-13T18:05:40;15.53;;;12.43;;
26588;SDS011;14235;48.532;8.722;2023-02-13T18:08:05;14.53;;;11.87;;
26588;SDS011;14235;48.532;8.722;2023-02-13T18:10:32;16.30;;;11.47;;
26588;SDS011;14235;48.532;8.722;2023-02-13T18:12:59;16.13;;;11.73;;
26588;SDS011;14235;48.532;8.722;2023-02-13T18:15:38;15.93;;;12.90;;
26588;SDS011;14235;48.532;8.722;2023-02-13T18:18:06;16.23;;;13.17;;
26588;SDS011;14235;48.532;8.722;2023-02-13T18:20:32;15.03;;;12.63;;
26588;SDS011;14235;48.532;8.722;2023-02-13T18:22:58;16.00;;;12.73;;
26588;SDS011;14235;48.532;8.722;2023-02-13T18:25:23;15.60;;;12.57;;
26588;SDS011;14235;48.532;8.722;2023-02-13T18:27:49;16.60;;;12.63;;
26588;SDS011;14235;48.532;8.722;2023-02-13T18:30:16;17.30;;;13.70;;
26588;SDS011;14235;48.532;8.722;2023-02-13T18:32:43;16.50;;;12.90;;
26588;SDS011;14235;48.532;8.722;2023-02-13T18:35:10;15.97;;;12.33;;
26588;SDS011;14235;48.532;8.722;2023-02-13T18:37:36;15.33;;;12.97;;
26588;SDS011;14235;48.532;8.722;2023-02-13T18:40:04;18.17;;;13.90;;
26588;SDS011;14235;48.532;8.722;2023-02-13T18:42:33;19.50;;;14.87;;
26588;SDS011;14235;48.532;8.722;2023-02-13T18:45:00;17.43;;;13.03;;
26588;SDS011;14235;48.532;8.722;2023-02-13T18:47:25;16.90;;;13.17;;
26588;SDS011;14235;48.532;8.722;2023-02-13T18:49:51;16.43;;;12.50;;
26588;SDS011;14235;48.532;8.722;2023-02-13T18:52:16;16.43;;;12.83;;
26588;SDS011;14235;48.532;8.722;2023-02-13T18:54:42;15.37;;;12.70;;
26588;SDS011;14235;48.532;8.722;2023-02-13T18:57:09;19.40;;;15.80;;
26588;SDS011;14235;48.532;8.722;2023-02-13T18:59:34;18.73;;;14.73;;
26588;SDS011;14235;48.532;8.722;2023-02-13T19:02:00;15.47;;;13.00;;
26588;SDS011;14235;48.532;8.722;2023-02-13T19:04:26;17.03;;;12.77;;
26588;SDS011;14235;48.532;8.722;2023-02-13T19:06:52;16.90;;;13.23;;
26588;SDS011;14235;48.532;8.722;2023-02-13T19:09:18;16.30;;;12.57;;
26588;SDS011;14235;48.532;8.722;2023-02-13T19:11:44;18.00;;;13.23;;
26588;SDS011;14235;48.532;8.722;2023-02-13T19:14:12;13.97;;;12.00;;
26588;SDS011;14235;48.532;8.722;2023-02-13T19:16:38;16.27;;;13.10;;
26588;SDS011;14235;48.532;8.722;2023-02-13T19:19:05;17.03;;;13.40;;
26588;SDS011;14235;48.532;8.722;2023-02-13T19:21:33;16.37;;;13.60;;
26588;SDS011;14235;48.532;8.722;2023-02-13T19:24:01;16.03;;;13.00;;
26588;SDS011;14235;48.532;8.722;2023-02-13T19:26:28;16.03;;;12.73;;